Weather at Wave Hill Airport

Public forecast

Using degrees Celsius for public forecast. Weather courtesy of forecast.io.

Closest aviation weather report (METAR) to Wave Hill Airport

Closest report is East Kimberley Regional (Kununurra) Airport, 169.2 nm (313.4 km) NW.

2024/03/01 21:30 (retrieved 37 minutes ago)

YPKU 012130Z AUTO 01004KT 9999 // SCT026 27/26 Q1008 RF000/0006

Closest aviation forecast (TAF) to Wave Hill Airport

Closest forecast is East Kimberley Regional (Kununurra) Airport, 169.2 nm (313.4 km) NW.

2024/03/01 20:00 Ammendment (retrieved 2 hours ago)

TAF AMD YPKU 011908Z 0120/0208 03005KT 9999 SCT016 FM020100 34008KT 9999 SCT020 TEMPO 0120/0201 9999 BKN012 PROB30 TEMPO 0202/0208 VRB20G30KT 1000 TSRA BKN010 SCT020CB